YKEL weather

Kelvin Station Airport
New South Wales, Australia

Public forecast

Using degrees Celsius for public forecast. Weather courtesy of forecast.io.

METAR (pilot weather report)

Closest report is Tamworth Airport, 48.2 nm (89.3 km) WSW. Retrieved 2019/04/22 18:00 UTC (14 minutes ago):

YSTW 221800Z AUTO 13012KT 9999 // NCD 17/12 Q1024 RF00.0/000.0

TAF (pilot weather forecast)

Closest forecast is Tamworth Airport, 48.2 nm (89.3 km) WSW. Retrieved 2019/04/22 18:36 UTC (0 seconds ago):

TAF TAF YSTW 221650Z 2218/2312 09008KT CAVOK